Mineral Faith — VRKS4 — position and weather

sailwx.info

Track history (hours):
 
Tides and Currents Weather Stations Pressure Air Temp Water Temp Dewpoint Dewpoint Depression Visibility Wind Speed Wind Dir Waves Ship Positions

Mineral Faith

Last reported at 2017-Aug-15 12:44 UTC. Time now 2017-Aug-21 06:35 UTC.
Position S 28°42' E 033°22'.

Length 292 m; draft 17.5 m.

Type: Cargo ship. MMSI: 477947500.

Date/timePositionNaut miles runAvg speedWind from/ knotsBaromVisibWave heightAir tempDewpointWater temp
2017-Aug-15 12:44S 28°42' E 033°22'410.5
2017-Aug-15 12:24S 28°43' E 033°18'510.6
2017-Aug-15 11:59S 28°44' E 033°13'510.8
2017-Aug-15 11:30S 28°45' E 033°07'510.6
2017-Aug-15 11:00S 28°46' E 033°01'510.4
2017-Aug-15 10:30S 28°47' E 032°56'510.5
2017-Aug-15 10:00S 28°48' E 032°50'510.4
2017-Aug-15 09:30S 28°49' E 032°44'5 9.8
2017-Aug-15 09:00S 28°50' E 032°39'5 9.5
2017-Aug-15 08:30S 28°51' E 032°33'5 9.2
2017-Aug-15 07:58S 28°52' E 032°28'5 9.6
2017-Aug-15 07:30S 28°51' E 032°23'4 9.0
2017-Aug-15 07:00S 28°51' E 032°17'5 9.7
2017-Aug-15 06:30S 28°50' E 032°12'510.0
2017-Aug-15 06:00S 28°49' E 032°06'3 5.8
2017-Aug-15 05:30S 28°48' E 032°03'0 0.4
2017-Aug-15 05:00S 28°49' E 032°03'  
Track history (hours):
 
Tides and Currents Weather Stations Pressure Air Temp Water Temp Dewpoint Dewpoint Depression Visibility Wind Speed Wind Dir Waves Ship Positions

Mineral Faith

Last reported at 2017-Aug-15 12:44 UTC. Time now 2017-Aug-21 06:35 UTC.
Position S 28°42' E 033°22'.

Length 292 m; draft 17.5 m.

Type: Cargo ship. MMSI: 477947500.

Date/timePositionNaut miles runAvg speedWind from/ knotsBaromVisibWave heightAir tempDewpointWater temp
2017-Aug-15 12:44S 28°42' E 033°22'410.5
2017-Aug-15 12:24S 28°43' E 033°18'510.6
2017-Aug-15 11:59S 28°44' E 033°13'510.8
2017-Aug-15 11:30S 28°45' E 033°07'510.6
2017-Aug-15 11:00S 28°46' E 033°01'510.4
2017-Aug-15 10:30S 28°47' E 032°56'510.5
2017-Aug-15 10:00S 28°48' E 032°50'510.4
2017-Aug-15 09:30S 28°49' E 032°44'5 9.8
2017-Aug-15 09:00S 28°50' E 032°39'5 9.5
2017-Aug-15 08:30S 28°51' E 032°33'5 9.2
2017-Aug-15 07:58S 28°52' E 032°28'5 9.6
2017-Aug-15 07:30S 28°51' E 032°23'4 9.0
2017-Aug-15 07:00S 28°51' E 032°17'5 9.7
2017-Aug-15 06:30S 28°50' E 032°12'510.0
2017-Aug-15 06:00S 28°49' E 032°06'3 5.8
2017-Aug-15 05:30S 28°48' E 032°03'0 0.4
2017-Aug-15 05:00S 28°49' E 032°03'  

Dump ship's entire track history